createdAt,value
2018-04-13T00:00:39.128Z,5.00
2018-04-13T00:03:06.618Z,5.13
2018-04-13T00:05:37.779Z,4.40
2018-04-13T00:08:05.235Z,5.07
2018-04-13T00:10:32.694Z,3.67
2018-04-13T00:13:02.216Z,7.07
2018-04-13T00:15:29.983Z,5.37
2018-04-13T00:17:59.370Z,3.37
2018-04-13T00:20:27.812Z,3.70
2018-04-13T00:22:56.128Z,3.40
2018-04-13T00:25:24.564Z,3.30
2018-04-13T00:27:52.033Z,4.53
2018-04-13T00:30:20.309Z,4.90
2018-04-13T00:32:48.589Z,3.83
2018-04-13T00:35:16.898Z,3.00
2018-04-13T00:37:44.351Z,2.87
2018-04-13T00:40:12.607Z,2.60
2018-04-13T00:42:40.906Z,5.50
2018-04-13T00:45:09.135Z,7.90
2018-04-13T00:47:36.615Z,4.27
2018-04-13T00:50:04.871Z,5.13
2018-04-13T00:52:32.348Z,3.60
2018-04-13T00:54:59.812Z,4.20
2018-04-13T00:57:27.269Z,6.47
2018-04-13T00:59:55.546Z,5.27
2018-04-13T01:02:23.828Z,4.50
2018-04-13T01:04:52.087Z,4.03
2018-04-13T01:07:20.363Z,3.77
2018-04-13T01:09:47.817Z,3.87
2018-04-13T01:12:16.141Z,4.07
2018-04-13T01:14:48.275Z,3.47
2018-04-13T01:17:16.546Z,5.87
2018-04-13T01:19:44.816Z,4.13
2018-04-13T01:22:13.183Z,3.60
2018-04-13T01:24:40.633Z,5.67
2018-04-13T01:27:08.076Z,4.43
2018-04-13T01:29:35.525Z,3.83
2018-04-13T01:32:02.977Z,4.60
2018-04-13T01:34:31.444Z,5.27
2018-04-13T01:36:58.909Z,4.90
2018-04-13T01:39:28.426Z,5.10
2018-04-13T01:41:56.864Z,3.60
2018-04-13T01:44:24.323Z,3.43
2018-04-13T01:46:51.769Z,4.20
2018-04-13T01:49:20.054Z,3.27
2018-04-13T01:51:47.508Z,2.83
2018-04-13T01:54:15.793Z,3.50
2018-04-13T01:56:43.227Z,3.37
2018-04-13T01:59:11.565Z,2.90
2018-04-13T02:01:39.028Z,3.93
2018-04-13T02:04:06.480Z,2.73
2018-04-13T02:06:36.777Z,4.93
2018-04-13T02:09:04.227Z,4.37
2018-04-13T02:11:31.694Z,2.53
2018-04-13T02:14:01.207Z,2.83
2018-04-13T02:16:29.443Z,3.70
2018-04-13T02:18:57.742Z,3.33
2018-04-13T02:21:26.250Z,3.13
2018-04-13T02:23:54.713Z,4.17
2018-04-13T02:26:22.159Z,5.03
2018-04-13T02:28:49.636Z,3.03
2018-04-13T02:31:20.544Z,5.33
2018-04-13T02:33:48.870Z,3.67
2018-04-13T02:36:16.313Z,5.17
2018-04-13T02:38:43.789Z,3.10
2018-04-13T02:41:14.475Z,2.60
2018-04-13T02:43:41.933Z,2.93
2018-04-13T02:46:09.392Z,2.30
2018-04-13T02:48:37.261Z,2.10
2018-04-13T02:51:05.542Z,2.43
2018-04-13T02:53:33.812Z,2.20
2018-04-13T02:56:01.274Z,2.53
2018-04-13T02:58:29.765Z,2.50
2018-04-13T03:01:00.900Z,2.20
2018-04-13T03:03:28.349Z,2.60
2018-04-13T03:05:56.663Z,2.33
2018-04-13T03:08:25.149Z,2.70
2018-04-13T03:10:56.904Z,2.80
2018-04-13T03:13:29.032Z,4.20
2018-04-13T03:15:57.312Z,3.37
2018-04-13T03:18:24.760Z,3.60
2018-04-13T03:20:55.921Z,4.70
2018-04-13T03:23:23.378Z,3.70
2018-04-13T03:25:50.891Z,3.10
2018-04-13T03:28:18.332Z,4.37
2018-04-13T03:30:46.820Z,3.03
2018-04-13T03:33:15.244Z,3.23
2018-04-13T03:35:42.731Z,3.63
2018-04-13T03:38:11.200Z,2.63
2018-04-13T03:40:38.704Z,2.00
2018-04-13T03:43:06.176Z,2.50
2018-04-13T03:45:35.679Z,2.10
2018-04-13T03:48:04.078Z,1.97
2018-04-13T03:50:34.220Z,2.60
2018-04-13T03:53:01.702Z,2.30
2018-04-13T03:55:29.150Z,2.40
2018-04-13T03:57:57.655Z,2.07
2018-04-13T04:00:25.893Z,1.50
2018-04-13T04:02:53.359Z,2.20
2018-04-13T04:05:20.808Z,3.63
2018-04-13T04:07:49.284Z,1.77
2018-04-13T04:10:16.779Z,1.33
2018-04-13T04:12:44.394Z,2.40
2018-04-13T04:18:10.701Z,2.30
2018-04-13T04:20:50.159Z,1.87
2018-04-13T04:26:38.322Z,1.53
2018-04-13T04:29:07.860Z,1.37
2018-04-13T04:31:35.317Z,1.30
2018-04-13T04:34:06.288Z,1.87
2018-04-13T04:36:36.955Z,1.73
2018-04-13T04:39:10.584Z,1.53
2018-04-13T04:41:39.062Z,1.40
2018-04-13T04:44:06.493Z,1.17
2018-04-13T04:46:34.809Z,1.00
2018-04-13T04:49:02.245Z,1.23
2018-04-13T04:51:30.525Z,1.10
2018-04-13T04:53:58.265Z,0.63
2018-04-13T04:56:27.531Z,0.80
2018-04-13T04:58:55.013Z,0.87
2018-04-13T05:01:27.156Z,1.10
2018-04-13T05:03:57.644Z,0.90
2018-04-13T05:06:25.116Z,1.37
2018-04-13T05:08:52.590Z,0.93
2018-04-13T05:11:21.049Z,1.13
2018-04-13T05:13:48.633Z,0.87
2018-04-13T05:16:16.872Z,0.87
2018-04-13T05:18:45.181Z,1.20
2018-04-13T05:21:12.651Z,1.20
2018-04-13T05:23:40.153Z,2.30
2018-04-13T05:26:08.401Z,1.00
2018-04-13T05:28:35.857Z,0.83
2018-04-13T05:31:03.320Z,0.70
2018-04-13T05:33:31.156Z,0.73
2018-04-13T05:35:58.608Z,1.53
2018-04-13T05:38:26.058Z,1.23
2018-04-13T05:40:53.536Z,2.00
2018-04-13T05:43:23.042Z,1.83
2018-04-13T05:45:50.489Z,1.83
2018-04-13T05:48:18.265Z,2.10
2018-04-13T05:50:55.329Z,3.67
2018-04-13T05:53:26.662Z,1.20
2018-04-13T05:56:00.065Z,1.23
2018-04-13T05:58:27.597Z,0.90
2018-04-13T06:00:57.864Z,1.17
2018-04-13T06:03:25.405Z,1.57
2018-04-13T06:05:54.289Z,1.40
2018-04-13T06:08:25.641Z,1.30
2018-04-13T06:10:53.163Z,1.40
2018-04-13T06:13:21.545Z,0.97
2018-04-13T06:15:49.916Z,1.07
2018-04-13T06:18:17.373Z,1.50
2018-04-13T06:20:44.811Z,1.10
2018-04-13T06:23:13.036Z,0.90
2018-04-13T06:25:41.365Z,0.97
2018-04-13T06:28:08.825Z,0.80
2018-04-13T06:30:38.104Z,1.33
2018-04-13T06:33:05.583Z,1.10
2018-04-13T06:35:34.113Z,0.60
2018-04-13T06:38:01.548Z,1.10
2018-04-13T06:40:29.029Z,1.00
2018-04-13T06:42:57.241Z,0.80
2018-04-13T06:45:24.711Z,1.13
2018-04-13T06:47:53.149Z,1.30
2018-04-13T06:50:20.600Z,1.10
2018-04-13T06:52:48.919Z,1.23
2018-04-13T06:55:16.369Z,0.90
2018-04-13T06:57:43.827Z,1.63
2018-04-13T07:00:12.268Z,1.10
2018-04-13T07:02:40.588Z,0.80
2018-04-13T07:05:08.038Z,1.20
2018-04-13T07:07:35.589Z,1.53
2018-04-13T07:10:03.065Z,3.10
2018-04-13T07:12:31.293Z,2.07
2018-04-13T07:15:01.800Z,3.20
2018-04-13T07:17:29.309Z,1.60
2018-04-13T07:19:57.778Z,1.40
2018-04-13T07:22:25.224Z,1.63
2018-04-13T07:24:53.965Z,1.70
2018-04-13T07:27:22.541Z,2.80
2018-04-13T07:29:51.833Z,2.90
2018-04-13T07:32:19.377Z,3.27
2018-04-13T07:34:47.755Z,1.90
2018-04-13T07:37:16.082Z,2.27
2018-04-13T07:39:43.037Z,1.50
2018-04-13T07:42:10.888Z,1.33
2018-04-13T07:44:38.419Z,1.97
2018-04-13T07:47:05.908Z,3.33
2018-04-13T07:49:36.107Z,2.07
2018-04-13T07:52:05.473Z,1.93
2018-04-13T07:54:33.808Z,0.97
2018-04-13T07:57:01.258Z,1.00
2018-04-13T07:59:31.932Z,1.40
2018-04-13T08:02:00.948Z,1.50
2018-04-13T08:04:32.863Z,1.23
2018-04-13T08:07:03.141Z,1.40
2018-04-13T08:12:04.019Z,1.37
2018-04-13T08:14:31.708Z,2.10
2018-04-13T08:17:02.614Z,0.77
2018-04-13T08:19:30.289Z,1.00
2018-04-13T08:22:02.167Z,0.87
2018-04-13T08:24:37.555Z,0.70
2018-04-13T08:27:09.650Z,0.60
2018-04-13T08:29:43.100Z,1.10
2018-04-13T08:32:10.577Z,0.67
2018-04-13T08:34:38.475Z,0.80
2018-04-13T08:37:06.317Z,0.70
2018-04-13T08:39:34.633Z,1.07
2018-04-13T08:42:08.864Z,0.70
2018-04-13T08:44:42.988Z,1.20
2018-04-13T08:47:10.528Z,1.33
2018-04-13T08:49:41.508Z,1.20
2018-04-13T08:52:09.084Z,1.20
2018-04-13T08:54:38.489Z,0.80
2018-04-13T08:57:07.364Z,1.27
2018-04-13T08:59:35.599Z,0.83
2018-04-13T09:04:35.823Z,1.10
2018-04-13T09:07:08.392Z,1.40
2018-04-13T09:09:38.378Z,1.20
2018-04-13T09:12:06.458Z,1.30
2018-04-13T09:14:40.233Z,2.03
2018-04-13T09:17:08.035Z,2.17
2018-04-13T09:19:38.409Z,2.33
2018-04-13T09:22:05.956Z,2.17
2018-04-13T09:24:34.317Z,1.70
2018-04-13T09:27:04.209Z,3.70
2018-04-13T09:29:33.153Z,3.27
2018-04-13T09:32:01.716Z,1.83
2018-04-13T09:34:29.492Z,1.83
2018-04-13T09:36:59.302Z,1.37
2018-04-13T09:39:41.448Z,1.67
2018-04-13T09:42:09.918Z,2.20
2018-04-13T09:44:40.469Z,2.20
2018-04-13T09:47:10.539Z,1.30
2018-04-13T09:49:37.998Z,1.10
2018-04-13T09:52:05.453Z,1.20
2018-04-13T09:54:33.397Z,0.70
2018-04-13T09:57:01.481Z,1.37
2018-04-13T09:59:29.984Z,1.20
2018-04-13T10:01:57.479Z,0.80
2018-04-13T10:04:36.228Z,2.50
2018-04-13T10:07:07.228Z,1.47
2018-04-13T10:12:15.762Z,1.93
2018-04-13T10:14:45.397Z,1.70
2018-04-13T10:17:14.068Z,1.47
2018-04-13T10:19:49.281Z,4.90
2018-04-13T10:22:19.806Z,1.73
2018-04-13T10:24:49.648Z,1.40
2018-04-13T10:29:51.714Z,2.17
2018-04-13T10:37:32.320Z,2.97
2018-04-13T10:45:20.800Z,1.70
2018-04-13T10:48:08.954Z,1.80
2018-04-13T11:50:46.916Z,3.47
2018-04-13T11:53:23.897Z,4.20
2018-04-13T11:55:51.420Z,2.90
2018-04-13T11:58:19.757Z,3.17
2018-04-13T12:00:49.962Z,2.40
2018-04-13T12:03:17.640Z,2.23
2018-04-13T12:05:45.490Z,2.00
2018-04-13T12:08:13.485Z,2.20
2018-04-13T12:10:41.948Z,2.20
2018-04-13T12:13:09.813Z,3.50
2018-04-13T12:15:37.667Z,2.37
2018-04-13T12:18:05.142Z,3.00
2018-04-13T12:20:34.649Z,3.17
2018-04-13T12:23:02.373Z,2.87
2018-04-13T12:25:30.744Z,3.30
2018-04-13T12:27:58.275Z,3.07
2018-04-13T12:30:25.824Z,4.63
2018-04-13T12:32:54.160Z,2.57
2018-04-13T12:35:22.887Z,4.33
2018-04-13T12:37:50.380Z,4.37
2018-04-13T12:40:18.899Z,3.20
2018-04-13T12:42:46.605Z,2.53
2018-04-13T12:45:16.046Z,2.30
2018-04-13T12:47:43.682Z,2.60
2018-04-13T12:50:11.118Z,2.70
2018-04-13T12:52:44.193Z,4.37
2018-04-13T12:55:12.294Z,4.67
2018-04-13T12:57:39.633Z,4.13
2018-04-13T13:00:07.360Z,3.00
2018-04-13T13:02:36.020Z,3.63
2018-04-13T13:05:03.504Z,2.60
2018-04-13T13:07:33.407Z,2.10
2018-04-13T13:10:03.884Z,2.77
2018-04-13T13:12:33.775Z,2.57
2018-04-13T13:15:03.044Z,2.97
2018-04-13T13:17:30.957Z,4.03
2018-04-13T13:20:01.142Z,3.73
2018-04-13T13:22:30.017Z,4.33
2018-04-13T13:24:57.589Z,3.80
2018-04-13T13:27:25.398Z,3.43
2018-04-13T13:29:53.275Z,2.50
2018-04-13T13:32:21.655Z,2.33
2018-04-13T13:34:49.996Z,2.93
2018-04-13T13:37:18.614Z,3.07
2018-04-13T13:39:46.073Z,3.83
2018-04-13T13:42:14.791Z,4.00
2018-04-13T13:44:42.397Z,3.37
2018-04-13T13:47:09.879Z,3.20
2018-04-13T13:49:37.381Z,2.90
2018-04-13T13:52:05.006Z,4.20
2018-04-13T13:54:33.283Z,3.63
2018-04-13T13:57:00.771Z,3.57
2018-04-13T13:59:29.553Z,2.93
2018-04-13T14:01:59.022Z,2.50
2018-04-13T14:04:29.829Z,3.20
2018-04-13T14:06:59.336Z,3.43
2018-04-13T14:09:28.115Z,4.87
2018-04-13T14:11:57.605Z,3.47
2018-04-13T14:14:26.267Z,4.53
2018-04-13T14:16:57.354Z,4.33
2018-04-13T14:19:27.803Z,3.20
2018-04-13T14:21:56.549Z,5.67
2018-04-13T14:24:25.995Z,3.87
2018-04-13T14:26:54.771Z,3.53
2018-04-13T14:29:22.274Z,4.43
2018-04-13T14:31:49.731Z,3.80
2018-04-13T14:34:17.417Z,3.50
2018-04-13T14:36:45.296Z,3.50
2018-04-13T14:39:12.873Z,3.70
2018-04-13T14:41:40.724Z,4.10
2018-04-13T14:44:09.157Z,3.80
2018-04-13T14:46:36.993Z,5.27
2018-04-13T14:49:05.702Z,4.50
2018-04-13T14:51:33.219Z,4.60
2018-04-13T14:54:00.735Z,4.10
2018-04-13T14:56:28.376Z,4.13
2018-04-13T14:58:57.549Z,6.13
2018-04-13T15:01:25.652Z,4.80
2018-04-13T15:03:54.030Z,4.30
2018-04-13T15:06:21.794Z,4.60
2018-04-13T15:08:52.250Z,4.77
2018-04-13T15:11:20.533Z,5.30
2018-04-13T15:13:48.965Z,5.87
2018-04-13T15:16:19.887Z,5.13
2018-04-13T15:18:48.147Z,5.43
2018-04-13T15:21:16.762Z,4.87
2018-04-13T15:23:46.528Z,5.47
2018-04-13T15:28:47.131Z,5.30
2018-04-13T15:31:15.517Z,6.93
2018-04-13T15:33:43.020Z,7.50
2018-04-13T15:36:11.425Z,5.30
2018-04-13T15:38:43.266Z,5.30
2018-04-13T15:41:13.825Z,4.10
2018-04-13T15:43:46.033Z,6.03
2018-04-13T15:49:05.882Z,6.50
2018-04-13T15:51:35.625Z,5.53
2018-04-13T15:54:09.997Z,6.07
2018-04-13T15:56:44.035Z,6.50
2018-04-13T15:59:15.277Z,7.43
2018-04-13T16:01:49.776Z,7.20
2018-04-13T16:04:18.668Z,7.30
2018-04-13T16:09:24.904Z,6.40
2018-04-13T16:11:54.627Z,6.10
2018-04-13T16:14:28.155Z,8.43
2018-04-13T16:16:57.413Z,9.07
2018-04-13T16:19:29.993Z,9.20
2018-04-13T16:22:01.773Z,8.00
2018-04-13T16:24:30.719Z,6.87
2018-04-13T16:26:59.558Z,7.83
2018-04-13T16:29:29.378Z,7.73
2018-04-13T16:31:57.530Z,9.33
2018-04-13T16:34:26.306Z,8.47
2018-04-13T16:36:54.953Z,8.63
2018-04-13T16:39:22.496Z,9.23
2018-04-13T16:41:49.972Z,8.80
2018-04-13T16:44:17.561Z,9.37
2018-04-13T16:46:47.188Z,8.53
2018-04-13T16:49:16.438Z,7.93
2018-04-13T16:51:46.579Z,8.50
2018-04-13T16:54:14.394Z,6.80
2018-04-13T16:56:42.226Z,7.97
2018-04-13T16:59:11.637Z,8.43
2018-04-13T17:01:39.089Z,14.07
2018-04-13T17:04:07.808Z,9.93
2018-04-13T17:06:36.664Z,13.20
2018-04-13T17:09:04.470Z,11.07
2018-04-13T17:11:32.371Z,12.00
2018-04-13T17:14:03.769Z,9.43
2018-04-13T17:16:31.565Z,8.23
2018-04-13T17:19:00.277Z,11.43
2018-04-13T17:21:27.950Z,11.97
2018-04-13T17:23:55.472Z,11.00
2018-04-13T17:26:23.074Z,9.43
2018-04-13T17:28:50.863Z,9.67
2018-04-13T17:31:19.627Z,11.47
2018-04-13T17:33:48.005Z,12.17
2018-04-13T17:36:16.658Z,10.83
2018-04-13T17:38:44.208Z,11.00
2018-04-13T17:41:14.887Z,10.87
2018-04-13T17:43:50.528Z,8.47
2018-04-13T17:46:19.030Z,8.87
2018-04-13T17:48:48.681Z,7.57
2018-04-13T17:54:08.313Z,8.47
2018-04-13T17:56:36.604Z,8.47
2018-04-13T17:59:04.439Z,6.80
2018-04-13T18:01:33.397Z,6.13
2018-04-13T18:04:01.065Z,5.60
2018-04-13T18:06:28.774Z,5.97
2018-04-13T18:08:57.389Z,5.37
2018-04-13T18:11:25.010Z,4.90
2018-04-13T18:13:54.014Z,5.20
2018-04-13T18:16:21.845Z,7.53
2018-04-13T18:18:51.174Z,8.83
2018-04-13T18:21:23.342Z,6.20
2018-04-13T18:23:57.155Z,5.83
2018-04-13T18:26:25.459Z,5.97
2018-04-13T18:28:54.827Z,6.00
2018-04-13T18:31:22.662Z,4.77
2018-04-13T18:33:52.383Z,5.37
2018-04-13T18:36:19.902Z,5.20
2018-04-13T18:38:47.576Z,6.20
2018-04-13T18:41:16.347Z,6.30
2018-04-13T18:43:45.010Z,4.60
2018-04-13T18:46:14.796Z,5.13
2018-04-13T18:48:46.593Z,9.77
2018-04-13T18:51:14.653Z,7.43
2018-04-13T18:53:44.273Z,6.47
2018-04-13T18:56:13.012Z,5.17
2018-04-13T18:58:45.410Z,6.03
2018-04-13T19:01:16.229Z,5.33
2018-04-13T19:03:43.846Z,5.33
2018-04-13T19:06:12.134Z,8.60
2018-04-13T19:11:12.918Z,8.70
2018-04-13T19:13:43.376Z,8.57
2018-04-13T19:16:13.390Z,8.47
2018-04-13T19:18:43.213Z,9.40
2018-04-13T19:21:11.608Z,8.10
2018-04-13T19:23:40.063Z,9.00
2018-04-13T19:26:10.942Z,7.20
2018-04-13T19:28:40.490Z,6.13
2018-04-13T19:31:08.856Z,10.63
2018-04-13T19:33:36.825Z,12.67
2018-04-13T19:36:04.595Z,9.17
2018-04-13T19:38:32.473Z,8.00
2018-04-13T19:41:00.072Z,6.23
2018-04-13T19:43:29.785Z,5.33
2018-04-13T19:45:57.684Z,6.47
2018-04-13T19:48:26.327Z,8.87
2018-04-13T19:50:55.952Z,6.83
2018-04-13T19:53:24.387Z,9.20
2018-04-13T19:55:54.197Z,8.13
2018-04-13T19:58:23.481Z,10.43
2018-04-13T20:00:53.693Z,5.87
2018-04-13T20:03:22.242Z,6.30
2018-04-13T20:05:50.973Z,4.77
2018-04-13T20:08:19.671Z,5.63
2018-04-13T20:10:48.524Z,4.10
2018-04-13T20:13:17.549Z,7.03
2018-04-13T20:15:45.707Z,4.57
2018-04-13T20:18:14.018Z,6.27
2018-04-13T20:20:42.591Z,8.40
2018-04-13T20:23:10.489Z,8.03
2018-04-13T20:25:42.828Z,4.87
2018-04-13T20:28:11.755Z,6.53
2018-04-13T20:36:25.709Z,3.97
2018-04-13T20:38:53.276Z,6.33
2018-04-13T20:41:21.848Z,4.97
2018-04-13T20:43:49.811Z,5.53
2018-04-13T20:46:18.414Z,8.38
2018-04-13T20:48:46.009Z,5.40
2018-04-13T20:51:13.902Z,4.47
2018-04-13T20:53:41.485Z,3.70
2018-04-13T21:20:33.659Z,5.70
2018-04-13T21:23:05.916Z,7.57
2018-04-13T21:25:40.869Z,4.37
2018-04-13T21:28:09.295Z,7.00
2018-04-13T21:30:37.001Z,13.73
2018-04-13T21:33:09.669Z,7.87
2018-04-13T21:35:42.798Z,8.60
2018-04-13T21:38:11.139Z,6.37
2018-04-13T21:40:46.268Z,8.63
2018-04-13T21:43:14.611Z,10.93
2018-04-13T21:45:42.086Z,7.73
2018-04-13T21:48:11.841Z,6.57
2018-04-13T21:50:39.641Z,7.30
2018-04-13T21:53:09.504Z,5.17
2018-04-13T21:55:37.799Z,5.50
2018-04-13T21:58:10.868Z,4.77
2018-04-13T22:00:39.707Z,4.37
2018-04-13T22:03:08.021Z,4.93
2018-04-13T22:05:38.925Z,9.60
2018-04-13T22:08:06.792Z,6.57
2018-04-13T22:10:34.753Z,8.93
2018-04-13T22:13:16.743Z,9.53
2018-04-13T22:15:48.244Z,6.83
2018-04-13T22:18:17.840Z,7.97
2018-04-13T22:20:46.741Z,4.83
2018-04-13T22:23:14.235Z,6.37
2018-04-13T22:25:42.063Z,6.93
2018-04-13T22:28:11.177Z,4.63
2018-04-13T22:30:39.922Z,6.63
2018-04-13T22:33:08.335Z,6.30
2018-04-13T22:35:38.009Z,4.67
2018-04-13T22:38:05.868Z,8.33
2018-04-13T22:40:36.421Z,9.00
2018-04-13T22:43:04.175Z,5.17
2018-04-13T22:45:34.792Z,9.40
2018-04-13T22:48:04.187Z,14.17
2018-04-13T22:50:31.801Z,11.00
2018-04-13T22:53:02.382Z,8.30
2018-04-13T22:55:30.295Z,12.60
2018-04-13T22:57:58.218Z,8.67
2018-04-13T23:00:26.532Z,7.73
2018-04-13T23:02:55.032Z,6.03
2018-04-13T23:05:22.872Z,6.10
2018-04-13T23:07:51.382Z,8.63
2018-04-13T23:10:19.802Z,8.40
2018-04-13T23:12:47.917Z,8.07
2018-04-13T23:15:17.491Z,7.10
2018-04-13T23:17:46.715Z,7.47
2018-04-13T23:20:16.091Z,5.17
2018-04-13T23:22:44.381Z,7.50
2018-04-13T23:25:15.141Z,8.10
2018-04-13T23:27:43.488Z,5.17
2018-04-13T23:30:11.814Z,3.90
2018-04-13T23:32:40.244Z,3.83
2018-04-13T23:35:08.533Z,3.23
2018-04-13T23:37:36.052Z,4.50
2018-04-13T23:40:04.306Z,4.13
2018-04-13T23:42:32.134Z,4.83
2018-04-13T23:44:59.945Z,3.13
2018-04-13T23:47:27.521Z,3.63
2018-04-13T23:49:54.979Z,4.40
2018-04-13T23:52:22.781Z,6.07
2018-04-13T23:54:50.240Z,4.10
2018-04-13T23:57:17.797Z,5.20
2018-04-13T23:59:45.359Z,3.97
